sensor_id;sensor_type;location;lat;lon;timestamp;P1;durP1;ratioP1;P2;durP2;ratioP2
30173;SDS011;16985;50.814;8.530;2023-08-12T00:01:49;5.47;;;2.33;;
30173;SDS011;16985;50.814;8.530;2023-08-12T00:04:14;2.90;;;2.47;;
30173;SDS011;16985;50.814;8.530;2023-08-12T00:06:41;10.52;;;2.72;;
30173;SDS011;16985;50.814;8.530;2023-08-12T00:09:08;4.28;;;2.65;;
30173;SDS011;16985;50.814;8.530;2023-08-12T00:11:36;6.32;;;2.75;;
30173;SDS011;16985;50.814;8.530;2023-08-12T00:14:03;5.15;;;2.95;;
30173;SDS011;16985;50.814;8.530;2023-08-12T00:16:29;5.20;;;2.90;;
30173;SDS011;16985;50.814;8.530;2023-08-12T00:18:55;3.05;;;2.58;;
30173;SDS011;16985;50.814;8.530;2023-08-12T00:21:21;8.13;;;2.90;;
30173;SDS011;16985;50.814;8.530;2023-08-12T00:23:47;5.28;;;2.95;;
30173;SDS011;16985;50.814;8.530;2023-08-12T00:26:14;4.03;;;2.97;;
30173;SDS011;16985;50.814;8.530;2023-08-12T00:28:40;3.60;;;2.67;;
30173;SDS011;16985;50.814;8.530;2023-08-12T00:31:06;4.18;;;2.78;;
30173;SDS011;16985;50.814;8.530;2023-08-12T00:33:32;5.13;;;2.60;;
30173;SDS011;16985;50.814;8.530;2023-08-12T00:35:58;6.15;;;2.90;;
30173;SDS011;16985;50.814;8.530;2023-08-12T00:38:26;6.70;;;3.10;;
30173;SDS011;16985;50.814;8.530;2023-08-12T00:40:52;5.10;;;3.10;;
30173;SDS011;16985;50.814;8.530;2023-08-12T00:43:18;6.50;;;2.90;;
30173;SDS011;16985;50.814;8.530;2023-08-12T00:45:44;5.97;;;2.83;;
30173;SDS011;16985;50.814;8.530;2023-08-12T00:48:10;5.53;;;3.10;;
30173;SDS011;16985;50.814;8.530;2023-08-12T00:50:36;5.43;;;3.15;;
30173;SDS011;16985;50.814;8.530;2023-08-12T00:53:04;5.65;;;2.75;;
30173;SDS011;16985;50.814;8.530;2023-08-12T00:55:33;5.13;;;2.40;;
30173;SDS011;16985;50.814;8.530;2023-08-12T00:57:59;9.15;;;3.38;;
30173;SDS011;16985;50.814;8.530;2023-08-12T01:00:25;3.70;;;2.83;;
30173;SDS011;16985;50.814;8.530;2023-08-12T01:02:51;3.60;;;2.75;;
30173;SDS011;16985;50.814;8.530;2023-08-12T01:05:18;4.32;;;2.80;;
30173;SDS011;16985;50.814;8.530;2023-08-12T01:07:45;5.65;;;3.13;;
30173;SDS011;16985;50.814;8.530;2023-08-12T01:10:11;7.28;;;3.10;;
30173;SDS011;16985;50.814;8.530;2023-08-12T01:12:52;2.97;;;2.67;;
30173;SDS011;16985;50.814;8.530;2023-08-12T01:15:43;7.43;;;3.15;;
30173;SDS011;16985;50.814;8.530;2023-08-12T01:18:10;5.20;;;3.00;;
30173;SDS011;16985;50.814;8.530;2023-08-12T01:20:36;5.20;;;2.92;;
30173;SDS011;16985;50.814;8.530;2023-08-12T01:23:08;4.55;;;2.97;;
30173;SDS011;16985;50.814;8.530;2023-08-12T01:25:38;4.75;;;2.88;;
30173;SDS011;16985;50.814;8.530;2023-08-12T01:28:04;3.70;;;3.00;;
30173;SDS011;16985;50.814;8.530;2023-08-12T01:30:30;6.38;;;2.75;;
30173;SDS011;16985;50.814;8.530;2023-08-12T01:33:01;6.05;;;3.05;;
30173;SDS011;16985;50.814;8.530;2023-08-12T01:35:51;4.90;;;3.28;;
30173;SDS011;16985;50.814;8.530;2023-08-12T01:38:34;5.07;;;3.28;;
30173;SDS011;16985;50.814;8.530;2023-08-12T01:41:03;10.75;;;3.00;;
30173;SDS011;16985;50.814;8.530;2023-08-12T01:43:31;3.63;;;3.25;;
30173;SDS011;16985;50.814;8.530;2023-08-12T01:45:58;5.40;;;3.65;;
30173;SDS011;16985;50.814;8.530;2023-08-12T01:48:24;6.18;;;4.20;;
30173;SDS011;16985;50.814;8.530;2023-08-12T01:50:50;6.72;;;3.20;;
30173;SDS011;16985;50.814;8.530;2023-08-12T01:53:16;5.72;;;3.80;;
30173;SDS011;16985;50.814;8.530;2023-08-12T01:55:42;3.78;;;2.97;;
30173;SDS011;16985;50.814;8.530;2023-08-12T01:58:09;5.53;;;3.22;;
30173;SDS011;16985;50.814;8.530;2023-08-12T02:00:36;4.75;;;3.53;;
30173;SDS011;16985;50.814;8.530;2023-08-12T02:03:02;4.07;;;3.08;;
30173;SDS011;16985;50.814;8.530;2023-08-12T02:05:28;5.35;;;3.40;;
30173;SDS011;16985;50.814;8.530;2023-08-12T02:07:54;4.00;;;3.00;;
30173;SDS011;16985;50.814;8.530;2023-08-12T02:10:20;6.25;;;3.67;;
30173;SDS011;16985;50.814;8.530;2023-08-12T02:12:45;6.95;;;4.13;;
30173;SDS011;16985;50.814;8.530;2023-08-12T02:15:11;3.85;;;3.08;;
30173;SDS011;16985;50.814;8.530;2023-08-12T02:17:38;6.97;;;3.33;;
30173;SDS011;16985;50.814;8.530;2023-08-12T02:20:04;5.45;;;3.60;;
30173;SDS011;16985;50.814;8.530;2023-08-12T02:22:31;7.28;;;3.88;;
30173;SDS011;16985;50.814;8.530;2023-08-12T02:24:56;13.45;;;7.75;;
30173;SDS011;16985;50.814;8.530;2023-08-12T02:27:22;26.63;;;12.90;;
30173;SDS011;16985;50.814;8.530;2023-08-12T02:29:48;27.30;;;15.48;;
30173;SDS011;16985;50.814;8.530;2023-08-12T02:32:14;24.08;;;14.18;;
30173;SDS011;16985;50.814;8.530;2023-08-12T02:34:40;22.90;;;13.13;;
30173;SDS011;16985;50.814;8.530;2023-08-12T02:37:08;18.15;;;11.07;;
30173;SDS011;16985;50.814;8.530;2023-08-12T02:39:34;16.33;;;10.40;;
30173;SDS011;16985;50.814;8.530;2023-08-12T02:42:00;21.63;;;9.55;;
30173;SDS011;16985;50.814;8.530;2023-08-12T02:44:26;18.48;;;8.48;;
30173;SDS011;16985;50.814;8.530;2023-08-12T02:46:53;11.30;;;7.38;;
30173;SDS011;16985;50.814;8.530;2023-08-12T02:49:19;10.48;;;7.13;;
30173;SDS011;16985;50.814;8.530;2023-08-12T02:51:44;12.32;;;6.03;;
30173;SDS011;16985;50.814;8.530;2023-08-12T02:54:10;9.93;;;5.82;;
30173;SDS011;16985;50.814;8.530;2023-08-12T02:56:36;7.65;;;4.70;;
30173;SDS011;16985;50.814;8.530;2023-08-12T02:59:02;7.22;;;4.63;;
30173;SDS011;16985;50.814;8.530;2023-08-12T03:01:28;9.43;;;4.50;;
30173;SDS011;16985;50.814;8.530;2023-08-12T03:03:55;5.57;;;3.92;;
30173;SDS011;16985;50.814;8.530;2023-08-12T03:06:21;8.90;;;4.40;;
30173;SDS011;16985;50.814;8.530;2023-08-12T03:08:46;6.65;;;3.60;;
30173;SDS011;16985;50.814;8.530;2023-08-12T03:11:14;7.35;;;3.97;;
30173;SDS011;16985;50.814;8.530;2023-08-12T03:13:40;5.70;;;3.80;;
30173;SDS011;16985;50.814;8.530;2023-08-12T03:16:14;4.97;;;4.00;;
30173;SDS011;16985;50.814;8.530;2023-08-12T03:18:42;6.50;;;4.05;;
30173;SDS011;16985;50.814;8.530;2023-08-12T03:21:09;6.95;;;4.10;;
30173;SDS011;16985;50.814;8.530;2023-08-12T03:23:36;9.60;;;4.45;;
30173;SDS011;16985;50.814;8.530;2023-08-12T03:26:04;6.40;;;3.33;;
30173;SDS011;16985;50.814;8.530;2023-08-12T03:28:30;6.90;;;4.07;;
30173;SDS011;16985;50.814;8.530;2023-08-12T03:30:56;5.85;;;3.78;;
30173;SDS011;16985;50.814;8.530;2023-08-12T03:33:23;8.63;;;4.50;;
30173;SDS011;16985;50.814;8.530;2023-08-12T03:35:51;8.77;;;4.53;;
30173;SDS011;16985;50.814;8.530;2023-08-12T03:38:17;7.50;;;4.03;;
30173;SDS011;16985;50.814;8.530;2023-08-12T03:40:44;7.88;;;4.15;;
30173;SDS011;16985;50.814;8.530;2023-08-12T03:45:41;8.63;;;4.07;;
30173;SDS011;16985;50.814;8.530;2023-08-12T03:48:10;9.65;;;3.67;;
30173;SDS011;16985;50.814;8.530;2023-08-12T03:50:37;7.72;;;3.85;;
30173;SDS011;16985;50.814;8.530;2023-08-12T03:53:04;8.32;;;4.25;;
30173;SDS011;16985;50.814;8.530;2023-08-12T03:55:31;9.57;;;4.38;;
30173;SDS011;16985;50.814;8.530;2023-08-12T03:57:58;6.83;;;4.07;;
30173;SDS011;16985;50.814;8.530;2023-08-12T04:00:25;5.43;;;4.07;;
30173;SDS011;16985;50.814;8.530;2023-08-12T04:02:57;5.90;;;4.35;;
30173;SDS011;16985;50.814;8.530;2023-08-12T04:05:22;6.20;;;4.10;;
30173;SDS011;16985;50.814;8.530;2023-08-12T04:07:48;10.27;;;4.95;;
30173;SDS011;16985;50.814;8.530;2023-08-12T04:10:14;8.73;;;5.03;;
30173;SDS011;16985;50.814;8.530;2023-08-12T04:12:41;7.68;;;4.72;;
30173;SDS011;16985;50.814;8.530;2023-08-12T04:15:07;9.60;;;4.55;;
30173;SDS011;16985;50.814;8.530;2023-08-12T04:17:34;7.82;;;4.70;;
30173;SDS011;16985;50.814;8.530;2023-08-12T04:20:01;7.53;;;4.60;;
30173;SDS011;16985;50.814;8.530;2023-08-12T04:22:32;5.80;;;4.43;;
30173;SDS011;16985;50.814;8.530;2023-08-12T04:24:57;9.77;;;4.78;;
30173;SDS011;16985;50.814;8.530;2023-08-12T04:27:23;7.18;;;4.75;;
30173;SDS011;16985;50.814;8.530;2023-08-12T04:29:50;10.25;;;4.78;;
30173;SDS011;16985;50.814;8.530;2023-08-12T04:32:16;8.45;;;4.63;;
30173;SDS011;16985;50.814;8.530;2023-08-12T04:34:42;8.20;;;5.05;;
30173;SDS011;16985;50.814;8.530;2023-08-12T04:37:09;9.23;;;4.90;;
30173;SDS011;16985;50.814;8.530;2023-08-12T04:39:35;7.45;;;5.05;;
30173;SDS011;16985;50.814;8.530;2023-08-12T04:42:01;7.15;;;4.75;;
30173;SDS011;16985;50.814;8.530;2023-08-12T04:44:27;8.38;;;4.75;;
30173;SDS011;16985;50.814;8.530;2023-08-12T04:46:53;7.15;;;4.88;;
30173;SDS011;16985;50.814;8.530;2023-08-12T04:49:20;9.18;;;4.47;;
30173;SDS011;16985;50.814;8.530;2023-08-12T04:51:46;4.88;;;4.10;;
30173;SDS011;16985;50.814;8.530;2023-08-12T04:54:12;7.55;;;4.70;;
30173;SDS011;16985;50.814;8.530;2023-08-12T04:56:38;7.28;;;5.15;;
30173;SDS011;16985;50.814;8.530;2023-08-12T04:59:04;8.88;;;5.07;;
30173;SDS011;16985;50.814;8.530;2023-08-12T05:01:30;7.20;;;5.07;;
30173;SDS011;16985;50.814;8.530;2023-08-12T05:03:56;9.05;;;4.63;;
30173;SDS011;16985;50.814;8.530;2023-08-12T05:06:22;6.90;;;4.85;;
30173;SDS011;16985;50.814;8.530;2023-08-12T05:08:49;6.25;;;4.47;;
30173;SDS011;16985;50.814;8.530;2023-08-12T05:11:14;6.88;;;4.63;;
30173;SDS011;16985;50.814;8.530;2023-08-12T05:13:40;9.23;;;5.03;;
30173;SDS011;16985;50.814;8.530;2023-08-12T05:16:06;8.23;;;5.25;;
30173;SDS011;16985;50.814;8.530;2023-08-12T05:18:32;8.55;;;5.22;;
30173;SDS011;16985;50.814;8.530;2023-08-12T05:20:59;8.85;;;5.35;;
30173;SDS011;16985;50.814;8.530;2023-08-12T05:23:24;6.53;;;4.68;;
30173;SDS011;16985;50.814;8.530;2023-08-12T05:25:50;7.05;;;4.57;;
30173;SDS011;16985;50.814;8.530;2023-08-12T05:28:16;9.50;;;4.57;;
30173;SDS011;16985;50.814;8.530;2023-08-12T05:30:42;6.72;;;5.78;;
30173;SDS011;16985;50.814;8.530;2023-08-12T05:33:08;9.07;;;5.75;;
30173;SDS011;16985;50.814;8.530;2023-08-12T05:35:34;8.20;;;4.88;;
30173;SDS011;16985;50.814;8.530;2023-08-12T05:38:00;7.72;;;5.68;;
30173;SDS011;16985;50.814;8.530;2023-08-12T05:40:27;6.38;;;4.97;;
30173;SDS011;16985;50.814;8.530;2023-08-12T05:42:53;8.50;;;4.90;;
30173;SDS011;16985;50.814;8.530;2023-08-12T05:45:19;6.93;;;4.88;;
30173;SDS011;16985;50.814;8.530;2023-08-12T05:47:45;5.97;;;4.68;;
30173;SDS011;16985;50.814;8.530;2023-08-12T05:50:10;6.68;;;4.68;;
30173;SDS011;16985;50.814;8.530;2023-08-12T05:52:36;6.22;;;4.55;;
30173;SDS011;16985;50.814;8.530;2023-08-12T05:55:02;7.20;;;5.38;;
30173;SDS011;16985;50.814;8.530;2023-08-12T05:57:29;8.23;;;4.90;;
30173;SDS011;16985;50.814;8.530;2023-08-12T05:59:55;8.25;;;5.80;;
30173;SDS011;16985;50.814;8.530;2023-08-12T06:02:21;8.80;;;5.25;;
30173;SDS011;16985;50.814;8.530;2023-08-12T06:04:47;8.35;;;5.20;;
30173;SDS011;16985;50.814;8.530;2023-08-12T06:07:12;6.38;;;4.95;;
30173;SDS011;16985;50.814;8.530;2023-08-12T06:09:38;7.38;;;5.13;;
30173;SDS011;16985;50.814;8.530;2023-08-12T06:12:04;8.95;;;5.15;;
30173;SDS011;16985;50.814;8.530;2023-08-12T06:14:30;10.45;;;5.20;;
30173;SDS011;16985;50.814;8.530;2023-08-12T06:16:56;7.00;;;4.95;;
30173;SDS011;16985;50.814;8.530;2023-08-12T06:19:22;9.98;;;5.53;;
30173;SDS011;16985;50.814;8.530;2023-08-12T06:21:48;6.53;;;5.10;;
30173;SDS011;16985;50.814;8.530;2023-08-12T06:24:14;6.18;;;4.85;;
30173;SDS011;16985;50.814;8.530;2023-08-12T06:26:39;7.60;;;5.05;;
30173;SDS011;16985;50.814;8.530;2023-08-12T06:29:05;6.85;;;4.93;;
30173;SDS011;16985;50.814;8.530;2023-08-12T06:31:31;5.85;;;4.60;;
30173;SDS011;16985;50.814;8.530;2023-08-12T06:33:57;7.90;;;5.72;;
30173;SDS011;16985;50.814;8.530;2023-08-12T06:36:23;6.18;;;5.38;;
30173;SDS011;16985;50.814;8.530;2023-08-12T06:38:49;7.93;;;5.82;;
30173;SDS011;16985;50.814;8.530;2023-08-12T06:41:14;7.28;;;5.32;;
30173;SDS011;16985;50.814;8.530;2023-08-12T06:43:40;6.82;;;4.95;;
30173;SDS011;16985;50.814;8.530;2023-08-12T06:46:06;7.28;;;5.90;;
30173;SDS011;16985;50.814;8.530;2023-08-12T06:48:32;10.13;;;6.55;;
30173;SDS011;16985;50.814;8.530;2023-08-12T06:50:58;7.65;;;6.53;;
30173;SDS011;16985;50.814;8.530;2023-08-12T06:53:24;9.20;;;6.60;;
30173;SDS011;16985;50.814;8.530;2023-08-12T06:55:51;10.07;;;6.90;;
30173;SDS011;16985;50.814;8.530;2023-08-12T06:58:17;11.77;;;7.50;;
30173;SDS011;16985;50.814;8.530;2023-08-12T07:00:43;9.75;;;8.07;;
30173;SDS011;16985;50.814;8.530;2023-08-12T07:03:09;9.73;;;7.13;;
30173;SDS011;16985;50.814;8.530;2023-08-12T07:05:34;10.65;;;7.35;;
30173;SDS011;16985;50.814;8.530;2023-08-12T07:08:00;8.70;;;6.75;;
30173;SDS011;16985;50.814;8.530;2023-08-12T07:10:26;9.60;;;6.75;;
30173;SDS011;16985;50.814;8.530;2023-08-12T07:12:52;9.68;;;7.07;;
30173;SDS011;16985;50.814;8.530;2023-08-12T07:15:18;8.52;;;6.38;;
30173;SDS011;16985;50.814;8.530;2023-08-12T07:17:44;7.30;;;6.10;;
30173;SDS011;16985;50.814;8.530;2023-08-12T07:20:09;10.98;;;7.47;;
30173;SDS011;16985;50.814;8.530;2023-08-12T07:22:35;8.98;;;6.65;;
30173;SDS011;16985;50.814;8.530;2023-08-12T07:25:01;11.63;;;7.15;;
30173;SDS011;16985;50.814;8.530;2023-08-12T07:27:27;8.93;;;7.22;;
30173;SDS011;16985;50.814;8.530;2023-08-12T07:29:53;10.13;;;6.75;;
30173;SDS011;16985;50.814;8.530;2023-08-12T07:32:20;9.98;;;8.30;;
30173;SDS011;16985;50.814;8.530;2023-08-12T07:34:46;8.30;;;7.35;;
30173;SDS011;16985;50.814;8.530;2023-08-12T07:37:12;9.52;;;7.88;;
30173;SDS011;16985;50.814;8.530;2023-08-12T07:39:38;8.75;;;7.60;;
30173;SDS011;16985;50.814;8.530;2023-08-12T07:42:03;7.93;;;7.03;;
30173;SDS011;16985;50.814;8.530;2023-08-12T07:44:29;11.25;;;7.18;;
30173;SDS011;16985;50.814;8.530;2023-08-12T07:46:55;8.02;;;6.28;;
30173;SDS011;16985;50.814;8.530;2023-08-12T07:49:21;8.35;;;6.07;;
30173;SDS011;16985;50.814;8.530;2023-08-12T07:51:47;7.35;;;6.20;;
30173;SDS011;16985;50.814;8.530;2023-08-12T07:54:13;7.55;;;6.15;;
30173;SDS011;16985;50.814;8.530;2023-08-12T07:56:39;7.13;;;5.95;;
30173;SDS011;16985;50.814;8.530;2023-08-12T07:59:05;8.20;;;5.53;;
30173;SDS011;16985;50.814;8.530;2023-08-12T08:01:31;8.13;;;5.43;;
30173;SDS011;16985;50.814;8.530;2023-08-12T08:03:56;7.53;;;5.80;;
30173;SDS011;16985;50.814;8.530;2023-08-12T08:06:22;7.60;;;5.72;;
30173;SDS011;16985;50.814;8.530;2023-08-12T08:08:49;5.70;;;5.10;;
30173;SDS011;16985;50.814;8.530;2023-08-12T08:11:15;7.47;;;5.07;;
30173;SDS011;16985;50.814;8.530;2023-08-12T08:13:40;6.30;;;5.13;;
30173;SDS011;16985;50.814;8.530;2023-08-12T08:16:06;5.78;;;5.20;;
30173;SDS011;16985;50.814;8.530;2023-08-12T08:18:32;7.70;;;5.30;;
30173;SDS011;16985;50.814;8.530;2023-08-12T08:20:58;6.15;;;5.43;;
30173;SDS011;16985;50.814;8.530;2023-08-12T08:23:24;7.53;;;6.00;;
30173;SDS011;16985;50.814;8.530;2023-08-12T08:25:50;7.65;;;6.13;;
30173;SDS011;16985;50.814;8.530;2023-08-12T08:28:16;7.88;;;6.20;;
30173;SDS011;16985;50.814;8.530;2023-08-12T08:30:42;7.78;;;6.53;;
30173;SDS011;16985;50.814;8.530;2023-08-12T08:33:08;9.80;;;6.85;;
30173;SDS011;16985;50.814;8.530;2023-08-12T08:35:34;10.25;;;6.45;;
30173;SDS011;16985;50.814;8.530;2023-08-12T08:37:59;7.22;;;5.82;;
30173;SDS011;16985;50.814;8.530;2023-08-12T08:40:26;9.98;;;5.72;;
30173;SDS011;16985;50.814;8.530;2023-08-12T08:42:52;7.60;;;5.85;;
30173;SDS011;16985;50.814;8.530;2023-08-12T08:45:19;10.30;;;6.45;;
30173;SDS011;16985;50.814;8.530;2023-08-12T08:47:49;6.68;;;5.72;;
30173;SDS011;16985;50.814;8.530;2023-08-12T08:50:16;8.43;;;5.63;;
30173;SDS011;16985;50.814;8.530;2023-08-12T08:52:43;8.90;;;5.80;;
30173;SDS011;16985;50.814;8.530;2023-08-12T08:55:09;8.90;;;5.13;;
30173;SDS011;16985;50.814;8.530;2023-08-12T08:57:37;6.88;;;5.05;;
30173;SDS011;16985;50.814;8.530;2023-08-12T09:00:05;6.20;;;5.18;;
30173;SDS011;16985;50.814;8.530;2023-08-12T09:02:36;6.82;;;5.00;;
30173;SDS011;16985;50.814;8.530;2023-08-12T09:05:02;6.38;;;4.70;;
30173;SDS011;16985;50.814;8.530;2023-08-12T09:07:30;5.50;;;5.00;;
30173;SDS011;16985;50.814;8.530;2023-08-12T09:09:57;7.30;;;4.82;;
30173;SDS011;16985;50.814;8.530;2023-08-12T09:12:25;5.78;;;4.93;;
30173;SDS011;16985;50.814;8.530;2023-08-12T09:14:52;5.05;;;4.55;;
30173;SDS011;16985;50.814;8.530;2023-08-12T09:17:17;4.30;;;3.85;;
30173;SDS011;16985;50.814;8.530;2023-08-12T09:19:43;5.60;;;4.57;;
30173;SDS011;16985;50.814;8.530;2023-08-12T09:22:09;5.40;;;4.38;;
30173;SDS011;16985;50.814;8.530;2023-08-12T09:24:35;7.15;;;4.53;;
30173;SDS011;16985;50.814;8.530;2023-08-12T09:27:01;6.43;;;3.67;;
30173;SDS011;16985;50.814;8.530;2023-08-12T09:29:30;5.07;;;4.38;;
30173;SDS011;16985;50.814;8.530;2023-08-12T09:32:14;5.90;;;3.75;;
30173;SDS011;16985;50.814;8.530;2023-08-12T09:34:47;4.50;;;3.95;;
30173;SDS011;16985;50.814;8.530;2023-08-12T09:37:16;5.40;;;4.13;;
30173;SDS011;16985;50.814;8.530;2023-08-12T09:39:43;5.32;;;4.03;;
30173;SDS011;16985;50.814;8.530;2023-08-12T09:42:10;4.32;;;3.90;;
30173;SDS011;16985;50.814;8.530;2023-08-12T09:44:39;8.00;;;3.45;;
30173;SDS011;16985;50.814;8.530;2023-08-12T09:47:06;8.52;;;4.50;;
30173;SDS011;16985;50.814;8.530;2023-08-12T09:49:37;5.25;;;3.83;;
30173;SDS011;16985;50.814;8.530;2023-08-12T09:52:05;5.75;;;3.97;;
30173;SDS011;16985;50.814;8.530;2023-08-12T09:54:32;4.95;;;4.03;;
30173;SDS011;16985;50.814;8.530;2023-08-12T09:56:59;7.28;;;4.93;;
30173;SDS011;16985;50.814;8.530;2023-08-12T09:59:35;6.88;;;4.00;;
30173;SDS011;16985;50.814;8.530;2023-08-12T10:02:03;6.25;;;4.38;;
30173;SDS011;16985;50.814;8.530;2023-08-12T10:04:39;4.70;;;4.22;;
30173;SDS011;16985;50.814;8.530;2023-08-12T10:07:10;5.35;;;4.57;;
30173;SDS011;16985;50.814;8.530;2023-08-12T10:09:39;4.78;;;4.28;;
30173;SDS011;16985;50.814;8.530;2023-08-12T10:12:07;5.80;;;4.50;;
30173;SDS011;16985;50.814;8.530;2023-08-12T10:14:34;4.20;;;3.85;;
30173;SDS011;16985;50.814;8.530;2023-08-12T10:17:00;6.05;;;3.67;;
30173;SDS011;16985;50.814;8.530;2023-08-12T10:19:27;5.40;;;4.85;;
30173;SDS011;16985;50.814;8.530;2023-08-12T10:21:56;5.13;;;3.78;;
30173;SDS011;16985;50.814;8.530;2023-08-12T10:24:27;4.38;;;3.72;;
30173;SDS011;16985;50.814;8.530;2023-08-12T10:26:53;7.07;;;3.92;;
30173;SDS011;16985;50.814;8.530;2023-08-12T10:29:20;3.75;;;3.40;;
30173;SDS011;16985;50.814;8.530;2023-08-12T10:31:48;3.53;;;3.22;;
30173;SDS011;16985;50.814;8.530;2023-08-12T10:34:18;4.68;;;3.30;;
30173;SDS011;16985;50.814;8.530;2023-08-12T10:36:53;3.97;;;3.58;;
30173;SDS011;16985;50.814;8.530;2023-08-12T10:39:26;5.22;;;2.92;;
30173;SDS011;16985;50.814;8.530;2023-08-12T10:41:55;4.10;;;2.65;;
30173;SDS011;16985;50.814;8.530;2023-08-12T10:44:24;3.80;;;2.75;;
30173;SDS011;16985;50.814;8.530;2023-08-12T10:46:53;4.50;;;3.15;;
30173;SDS011;16985;50.814;8.530;2023-08-12T10:49:20;6.32;;;3.42;;
30173;SDS011;16985;50.814;8.530;2023-08-12T10:51:50;4.72;;;2.55;;
30173;SDS011;16985;50.814;8.530;2023-08-12T10:54:22;3.42;;;2.90;;
30173;SDS011;16985;50.814;8.530;2023-08-12T10:57:04;6.72;;;3.20;;
30173;SDS011;16985;50.814;8.530;2023-08-12T11:05:04;5.57;;;3.92;;
30173;SDS011;16985;50.814;8.530;2023-08-12T11:10:06;3.58;;;3.08;;
30173;SDS011;16985;50.814;8.530;2023-08-12T11:15:17;4.18;;;3.08;;
30173;SDS011;16985;50.814;8.530;2023-08-12T11:17:47;2.67;;;2.40;;
30173;SDS011;16985;50.814;8.530;2023-08-12T11:20:13;6.18;;;3.00;;
30173;SDS011;16985;50.814;8.530;2023-08-12T11:22:40;5.10;;;2.58;;
30173;SDS011;16985;50.814;8.530;2023-08-12T11:25:09;3.22;;;2.92;;
30173;SDS011;16985;50.814;8.530;2023-08-12T11:27:43;6.03;;;2.83;;
30173;SDS011;16985;50.814;8.530;2023-08-12T11:30:12;4.03;;;2.83;;
30173;SDS011;16985;50.814;8.530;2023-08-12T11:32:41;2.50;;;2.30;;
30173;SDS011;16985;50.814;8.530;2023-08-12T11:35:12;5.32;;;2.65;;
30173;SDS011;16985;50.814;8.530;2023-08-12T11:37:40;9.30;;;2.60;;
30173;SDS011;16985;50.814;8.530;2023-08-12T11:40:10;3.38;;;2.42;;
30173;SDS011;16985;50.814;8.530;2023-08-12T11:42:40;3.20;;;2.90;;
30173;SDS011;16985;50.814;8.530;2023-08-12T11:45:08;3.17;;;2.15;;
30173;SDS011;16985;50.814;8.530;2023-08-12T11:47:34;4.28;;;2.63;;
30173;SDS011;16985;50.814;8.530;2023-08-12T11:50:02;5.70;;;2.80;;
30173;SDS011;16985;50.814;8.530;2023-08-12T11:52:32;2.92;;;2.47;;
30173;SDS011;16985;50.814;8.530;2023-08-12T11:54:58;3.58;;;2.45;;
30173;SDS011;16985;50.814;8.530;2023-08-12T11:57:25;3.15;;;2.20;;
30173;SDS011;16985;50.814;8.530;2023-08-12T11:59:59;2.53;;;1.95;;
30173;SDS011;16985;50.814;8.530;2023-08-12T12:02:41;3.53;;;2.47;;
30173;SDS011;16985;50.814;8.530;2023-08-12T12:05:16;2.65;;;2.10;;
30173;SDS011;16985;50.814;8.530;2023-08-12T12:07:43;2.53;;;2.10;;
30173;SDS011;16985;50.814;8.530;2023-08-12T12:10:12;3.95;;;2.22;;
30173;SDS011;16985;50.814;8.530;2023-08-12T12:15:13;5.05;;;2.53;;
30173;SDS011;16985;50.814;8.530;2023-08-12T12:17:44;3.35;;;2.00;;
30173;SDS011;16985;50.814;8.530;2023-08-12T12:20:12;3.70;;;2.33;;
30173;SDS011;16985;50.814;8.530;2023-08-12T12:22:40;3.30;;;1.60;;
30173;SDS011;16985;50.814;8.530;2023-08-12T12:25:12;2.40;;;1.90;;
30173;SDS011;16985;50.814;8.530;2023-08-12T12:27:40;1.60;;;1.50;;
30173;SDS011;16985;50.814;8.530;2023-08-12T12:30:09;3.28;;;1.92;;
30173;SDS011;16985;50.814;8.530;2023-08-12T12:32:37;2.35;;;1.70;;
30173;SDS011;16985;50.814;8.530;2023-08-12T12:35:04;3.27;;;1.90;;
30173;SDS011;16985;50.814;8.530;2023-08-12T12:37:32;1.50;;;1.40;;
30173;SDS011;16985;50.814;8.530;2023-08-12T12:39:58;2.60;;;1.77;;
30173;SDS011;16985;50.814;8.530;2023-08-12T12:42:24;2.55;;;1.88;;
30173;SDS011;16985;50.814;8.530;2023-08-12T12:44:50;1.92;;;1.48;;
30173;SDS011;16985;50.814;8.530;2023-08-12T12:47:16;2.40;;;2.10;;
30173;SDS011;16985;50.814;8.530;2023-08-12T12:49:43;3.67;;;1.65;;
30173;SDS011;16985;50.814;8.530;2023-08-12T12:52:10;2.80;;;1.73;;
30173;SDS011;16985;50.814;8.530;2023-08-12T12:54:36;1.95;;;1.73;;
30173;SDS011;16985;50.814;8.530;2023-08-12T12:57:02;1.88;;;1.65;;
30173;SDS011;16985;50.814;8.530;2023-08-12T12:59:29;4.10;;;1.63;;
30173;SDS011;16985;50.814;8.530;2023-08-12T13:01:55;2.00;;;1.77;;
30173;SDS011;16985;50.814;8.530;2023-08-12T13:04:21;2.45;;;1.65;;
30173;SDS011;16985;50.814;8.530;2023-08-12T13:06:47;3.17;;;1.65;;
30173;SDS011;16985;50.814;8.530;2023-08-12T13:09:13;2.13;;;1.60;;
30173;SDS011;16985;50.814;8.530;2023-08-12T13:11:39;2.50;;;1.90;;
30173;SDS011;16985;50.814;8.530;2023-08-12T13:14:04;5.00;;;1.45;;
30173;SDS011;16985;50.814;8.530;2023-08-12T13:16:30;1.95;;;1.50;;
30173;SDS011;16985;50.814;8.530;2023-08-12T13:18:56;1.85;;;1.67;;
30173;SDS011;16985;50.814;8.530;2023-08-12T13:21:24;3.83;;;1.90;;
30173;SDS011;16985;50.814;8.530;2023-08-12T13:23:50;5.82;;;1.60;;
30173;SDS011;16985;50.814;8.530;2023-08-12T13:26:16;2.38;;;1.65;;
30173;SDS011;16985;50.814;8.530;2023-08-12T13:28:43;3.83;;;1.83;;
30173;SDS011;16985;50.814;8.530;2023-08-12T13:31:09;4.03;;;1.45;;
30173;SDS011;16985;50.814;8.530;2023-08-12T13:33:35;3.03;;;1.83;;
30173;SDS011;16985;50.814;8.530;2023-08-12T13:36:01;4.75;;;2.03;;
30173;SDS011;16985;50.814;8.530;2023-08-12T13:38:27;2.63;;;1.73;;
30173;SDS011;16985;50.814;8.530;2023-08-12T13:40:52;2.78;;;1.75;;
30173;SDS011;16985;50.814;8.530;2023-08-12T13:43:18;2.80;;;2.05;;
30173;SDS011;16985;50.814;8.530;2023-08-12T13:45:44;3.30;;;1.58;;
30173;SDS011;16985;50.814;8.530;2023-08-12T13:48:10;6.43;;;2.25;;
30173;SDS011;16985;50.814;8.530;2023-08-12T13:50:37;2.53;;;1.60;;
30173;SDS011;16985;50.814;8.530;2023-08-12T13:53:02;3.15;;;1.30;;
30173;SDS011;16985;50.814;8.530;2023-08-12T13:55:28;3.25;;;1.50;;
30173;SDS011;16985;50.814;8.530;2023-08-12T13:57:54;4.80;;;1.70;;
30173;SDS011;16985;50.814;8.530;2023-08-12T14:00:20;3.15;;;1.90;;
30173;SDS011;16985;50.814;8.530;2023-08-12T14:02:46;2.20;;;1.60;;
30173;SDS011;16985;50.814;8.530;2023-08-12T14:05:13;2.23;;;1.60;;
30173;SDS011;16985;50.814;8.530;2023-08-12T14:07:39;2.33;;;1.50;;
30173;SDS011;16985;50.814;8.530;2023-08-12T14:10:06;1.52;;;1.20;;
30173;SDS011;16985;50.814;8.530;2023-08-12T14:12:33;4.87;;;1.60;;
30173;SDS011;16985;50.814;8.530;2023-08-12T14:15:00;2.55;;;1.52;;
30173;SDS011;16985;50.814;8.530;2023-08-12T14:17:26;2.50;;;1.40;;
30173;SDS011;16985;50.814;8.530;2023-08-12T14:19:52;1.77;;;1.33;;
30173;SDS011;16985;50.814;8.530;2023-08-12T14:22:18;3.00;;;1.60;;
30173;SDS011;16985;50.814;8.530;2023-08-12T14:24:45;2.42;;;1.70;;
30173;SDS011;16985;50.814;8.530;2023-08-12T14:27:13;2.50;;;1.40;;
30173;SDS011;16985;50.814;8.530;2023-08-12T14:29:45;2.25;;;1.60;;
30173;SDS011;16985;50.814;8.530;2023-08-12T14:32:11;5.22;;;2.05;;
30173;SDS011;16985;50.814;8.530;2023-08-12T14:34:37;3.08;;;1.25;;
30173;SDS011;16985;50.814;8.530;2023-08-12T14:37:03;1.75;;;1.25;;
30173;SDS011;16985;50.814;8.530;2023-08-12T14:39:29;3.22;;;1.58;;
30173;SDS011;16985;50.814;8.530;2023-08-12T14:41:55;2.15;;;1.55;;
30173;SDS011;16985;50.814;8.530;2023-08-12T14:44:21;1.95;;;1.50;;
30173;SDS011;16985;50.814;8.530;2023-08-12T14:46:47;1.80;;;1.38;;
30173;SDS011;16985;50.814;8.530;2023-08-12T14:49:13;4.40;;;1.58;;
30173;SDS011;16985;50.814;8.530;2023-08-12T14:51:39;1.98;;;1.52;;
30173;SDS011;16985;50.814;8.530;2023-08-12T14:54:04;1.85;;;1.13;;
30173;SDS011;16985;50.814;8.530;2023-08-12T14:56:31;4.07;;;1.92;;
30173;SDS011;16985;50.814;8.530;2023-08-12T14:58:57;2.60;;;1.65;;
30173;SDS011;16985;50.814;8.530;2023-08-12T15:01:22;3.05;;;1.60;;